Humidity-temperature Sensor

Selected Measurement Type: Air Temperature

 
Air Temperature [°C]     6 entries per hour
Showing data from 8/28/2020 (00:00:00 Z) to 8/27/2020 (00:01:00 Z)
Previous Next [ Day | 3-Days | 7-Days ]
First Last
Prev [ Day | 3-Days | 7-Days ] Next
First Last

Start Time:     :
End Time:     :     
Time (in GMT) :00 :50 :40 :30 :20 :10
Previous Next [ Day | 3-Days | 7-Days ]
First Last
Prev [ Day | 3-Days | 7-Days ] Next
First Last


123 => good data
MM => data is determined as missing
-- => data not received/configured
Back to Top Back to Top
8/28/2020 00:00 to 23:10 27.96 27.96 27.77 27.83 27.76 27.67
8/27/2020 23:00 to 22:10 27.65 27.42 27.55 27.57 27.62 27.27
8/27/2020 22:00 to 21:10 26.96 26.60 26.26 25.92 26.21 27.22
8/27/2020 21:00 to 20:10 27.87 27.94 27.96 27.98 27.93 27.98
8/27/2020 20:00 to 19:10 27.84 27.84 27.72 27.76 27.89 27.84
8/27/2020 19:00 to 18:10 27.89 27.77 27.87 27.95 27.88 27.79
8/27/2020 18:00 to 17:10 27.81 27.74 27.48 27.29 27.25 27.14
8/27/2020 17:00 to 16:10 27.16 27.11 27.10 27.04 27.00 27.07
8/27/2020 16:00 to 15:10 27.04 26.88 26.94 26.92 27.00 26.95
8/27/2020 15:00 to 14:10 27.02 27.04 27.04 26.85 26.88 26.82
8/27/2020 14:00 to 13:10 26.85 26.78 26.79 26.62 26.77 26.77
8/27/2020 13:00 to 12:10 26.81 26.93 26.79 26.60 26.71 26.64
8/27/2020 12:00 to 11:10 26.65 26.67 26.82 26.79 26.88 26.94
8/27/2020 11:00 to 10:10 26.92 27.08 27.13 26.97 27.09 27.04
8/27/2020 10:00 to 9:10 27.06 26.87 26.56 26.34 26.27 26.06
8/27/2020 09:00 to 8:10 25.97 26.09 25.98 26.24 26.55 26.67
8/27/2020 08:00 to 7:10 26.60 26.83 26.64 26.51 26.48 26.60
8/27/2020 07:00 to 6:10 26.25 26.26 26.41 25.72 25.79 26.06
8/27/2020 06:00 to 5:10 25.49 25.66 25.88 26.92 27.47 27.70
8/27/2020 05:00 to 4:10 27.71 27.77 27.72 27.72 27.65 27.96
8/27/2020 04:00 to 3:10 27.89 27.92 27.83 27.98 28.02 27.84
8/27/2020 03:00 to 2:10 28.31 28.48 28.09 28.63 28.49 28.47
8/27/2020 02:00 to 1:10 28.60 28.50 28.39 28.36 28.29 28.30
8/27/2020 01:00 to 0:10 28.27 28.39 28.34 28.34 28.20 28.04